Time;durP1;ratioP1;P1;durP2;ratioP2;P2;SDS_P1;SDS_P2;PMS_P1;PMS_P2;Temp;Humidity;BMP_temperature;BMP_pressure;BME280_temperature;BME280_humidity;BME280_pressure;Samples;Min_cycle;Max_cycle;Signal;HPM_P1;HPM_P2
2023/01/27 00:00:05;;;;;;;24.55;12.60;;;4.50;99.90;;;;;;5071541;28;20036;-69
2023/01/27 00:02:31;;;;;;;27.30;13.75;;;4.40;99.90;;;;;;5071408;28;20136;-70
2023/01/27 00:04:57;;;;;;;26.88;13.82;;;4.50;99.90;;;;;;5070109;28;20094;-70
2023/01/27 00:07:22;;;;;;;24.25;13.40;;;4.50;99.90;;;;;;5070852;28;20036;-70
2023/01/27 00:09:48;;;;;;;25.83;12.43;;;4.50;99.90;;;;;;5071511;28;20392;-70
2023/01/27 00:15:10;;;;;;;25.70;13.43;;;4.50;99.90;;;;;;5070423;28;20045;-70
2023/01/27 00:17:36;;;;;;;27.98;14.55;;;4.50;99.90;;;;;;5070018;28;20392;-69
2023/01/27 00:20:02;;;;;;;29.48;13.82;;;4.50;99.90;;;;;;5069693;28;20052;-70
2023/01/27 00:25:12;;;;;;;27.83;14.38;;;4.50;99.90;;;;;;5070246;28;20048;-70
2023/01/27 00:27:38;;;;;;;27.15;14.45;;;4.40;99.90;;;;;;5069671;28;20394;-70
2023/01/27 00:30:06;;;;;;;25.85;14.52;;;4.50;99.90;;;;;;5071131;28;20040;-69
2023/01/27 00:35:17;;;;;;;25.55;13.43;;;4.50;99.90;;;;;;5070163;28;20045;-69
2023/01/27 00:37:43;;;;;;;24.13;13.52;;;4.40;99.90;;;;;;5069711;28;20497;-69
2023/01/27 00:40:10;;;;;;;25.60;12.70;;;4.40;99.90;;;;;;5070904;28;20054;-70
2023/01/27 00:42:36;;;;;;;22.15;11.50;;;4.40;99.90;;;;;;5069668;28;20056;-69
2023/01/27 00:47:49;;;;;;;18.17;10.40;;;4.50;99.90;;;;;;5070671;28;20083;-69
2023/01/27 00:50:15;;;;;;;21.15;11.15;;;4.40;99.90;;;;;;5070941;28;20417;-69
2023/01/27 00:52:41;;;;;;;20.80;11.35;;;4.40;99.90;;;;;;5070693;28;20148;-69
2023/01/27 00:55:09;;;;;;;18.38;11.15;;;4.40;99.90;;;;;;5068852;28;20476;-69
2023/01/27 00:57:36;;;;;;;16.48;10.10;;;4.50;99.90;;;;;;5070725;28;20047;-69
2023/01/27 01:00:03;;;;;;;20.42;10.90;;;4.40;99.90;;;;;;5052737;28;20132;-69
2023/01/27 01:02:28;;;;;;;19.35;10.90;;;4.40;99.90;;;;;;5070549;28;20101;-69
2023/01/27 01:04:54;;;;;;;19.05;10.65;;;4.50;99.90;;;;;;5070090;28;20465;-70
2023/01/27 01:07:19;;;;;;;19.00;10.93;;;4.40;99.90;;;;;;5070852;28;20456;-69
2023/01/27 01:09:45;;;;;;;20.45;10.73;;;4.50;99.90;;;;;;5070387;28;20036;-70
2023/01/27 01:12:10;;;;;;;25.27;11.20;;;4.40;99.90;;;;;;5070256;28;20112;-69
2023/01/27 01:14:36;;;;;;;15.80;10.30;;;4.50;99.90;;;;;;5069891;28;20115;-70
2023/01/27 01:17:01;;;;;;;20.90;10.27;;;4.50;99.90;;;;;;5071655;28;20059;-69
2023/01/27 01:19:29;;;;;;;15.55;10.10;;;4.50;99.90;;;;;;5074602;28;20041;-69
2023/01/27 01:21:55;;;;;;;15.65;8.95;;;4.50;99.90;;;;;;5074510;28;20067;-69
2023/01/27 01:24:20;;;;;;;13.73;8.55;;;4.50;99.90;;;;;;5073547;28;20182;-69
2023/01/27 01:26:46;;;;;;;13.70;9.00;;;4.50;99.90;;;;;;5073051;28;20079;-69
2023/01/27 01:29:11;;;;;;;17.73;8.98;;;4.50;99.90;;;;;;5056388;28;20412;-69
2023/01/27 01:31:37;;;;;;;13.18;7.57;;;4.50;99.90;;;;;;5074125;28;20094;-69
2023/01/27 01:34:03;;;;;;;16.10;8.23;;;4.50;99.90;;;;;;5073477;28;20401;-69
2023/01/27 01:36:28;;;;;;;14.40;7.38;;;4.50;99.90;;;;;;5074313;28;20108;-69
2023/01/27 01:38:55;;;;;;;11.52;6.25;;;4.60;99.90;;;;;;5072716;28;20633;-69
2023/01/27 01:41:21;;;;;;;10.95;7.25;;;4.60;99.90;;;;;;5074195;28;20044;-69
2023/01/27 01:43:49;;;;;;;11.40;6.93;;;4.60;99.90;;;;;;5073538;28;20132;-70
2023/01/27 01:46:14;;;;;;;10.45;6.05;;;4.60;99.90;;;;;;5073885;28;20563;-69
2023/01/27 01:49:00;;;;;;;9.15;5.35;;;4.60;99.90;;;;;;5072657;28;20124;-69
2023/01/27 01:51:43;;;;;;;8.82;6.10;;;4.60;99.90;;;;;;5073761;28;20134;-69
2023/01/27 01:54:44;;;;;;;;;;;4.60;99.90;;;;;;5073613;28;20076;-69
2023/01/27 01:57:15;;;;;;;7.57;4.80;;;4.60;99.90;;;;;;5011434;28;19917;-69
2023/01/27 01:59:47;;;;;;;10.40;5.28;;;4.60;99.90;;;;;;5058741;28;20694;-69
2023/01/27 02:02:15;;;;;;;;;;;4.60;99.90;;;;;;5074316;28;20044;-70
2023/01/27 02:05:04;;;;;;;7.25;4.78;;;4.60;99.90;;;;;;5072876;28;19917;-70
2023/01/27 02:07:41;;;;;;;9.80;6.13;;;4.60;99.90;;;;;;5072101;28;20478;-69
2023/01/27 02:10:06;;;;;;;6.55;5.13;;;4.60;99.90;;;;;;5073548;28;20072;-69
2023/01/27 02:12:32;;;;;;;6.78;4.82;;;4.60;99.90;;;;;;5072294;28;20087;-69
2023/01/27 02:14:58;;;;;;;6.63;4.13;;;4.60;99.90;;;;;;5072639;28;20041;-69
2023/01/27 02:17:23;;;;;;;6.85;4.63;;;4.60;99.90;;;;;;5073331;28;20501;-69
2023/01/27 02:20:17;;;;;;;7.30;4.40;;;4.50;99.90;;;;;;5073209;28;20040;-69
2023/01/27 02:23:03;;;;;;;7.07;4.30;;;4.50;99.90;;;;;;5072045;28;20071;-69
2023/01/27 02:25:46;;;;;;;5.32;3.83;;;4.50;99.90;;;;;;5072560;28;20067;-69
2023/01/27 02:28:12;;;;;;;5.38;4.28;;;4.50;99.90;;;;;;5072607;28;20119;-70
2023/01/27 02:30:37;;;;;;;5.60;4.20;;;4.50;99.90;;;;;;5071530;28;20615;-69
2023/01/27 02:33:12;;;;;;;7.85;5.00;;;4.50;99.90;;;;;;5073377;28;20045;-69
2023/01/27 02:35:50;;;;;;;5.45;4.07;;;4.50;99.90;;;;;;5072294;28;20049;-69
2023/01/27 02:38:17;;;;;;;5.68;4.15;;;4.50;99.90;;;;;;5071621;28;20547;-69
2023/01/27 02:40:45;;;;;;;6.70;4.05;;;4.50;99.90;;;;;;5054965;28;20040;-69
2023/01/27 02:43:10;;;;;;;5.50;4.18;;;4.50;99.90;;;;;;5072860;28;20094;-69
2023/01/27 02:45:36;;;;;;;7.15;3.95;;;4.60;99.90;;;;;;5071944;28;20036;-69
2023/01/27 02:48:01;;;;;;;8.13;4.22;;;4.60;99.90;;;;;;5071691;28;20554;-70
2023/01/27 02:50:28;;;;;;;7.07;3.97;;;4.60;99.90;;;;;;5071392;28;20040;-69
2023/01/27 02:52:53;;;;;;;6.43;3.88;;;4.50;99.90;;;;;;5054719;28;20488;-69
2023/01/27 02:55:19;;;;;;;5.55;3.63;;;4.60;99.90;;;;;;5071988;28;20033;-69
2023/01/27 02:57:44;;;;;;;6.72;3.85;;;4.60;99.90;;;;;;5071097;28;20401;-69
2023/01/27 03:00:12;;;;;;;4.70;3.42;;;4.60;99.90;;;;;;5072517;28;20066;-69
2023/01/27 03:02:38;;;;;;;3.88;3.15;;;4.60;99.90;;;;;;5072431;28;20500;-69
2023/01/27 03:05:04;;;;;;;4.55;3.22;;;4.60;99.90;;;;;;5070684;28;20045;-69
2023/01/27 03:07:29;;;;;;;7.97;3.63;;;4.60;99.90;;;;;;5072446;28;20036;-69
2023/01/27 03:09:55;;;;;;;4.88;3.35;;;4.60;99.90;;;;;;5054514;28;20041;-69
2023/01/27 03:12:21;;;;;;;3.92;3.08;;;4.60;99.90;;;;;;5072322;28;20048;-69
2023/01/27 03:20:16;;;;;;;3.42;3.15;;;4.60;99.90;;;;;;5072526;28;20048;-69
2023/01/27 03:22:42;;;;;;;7.03;3.17;;;4.60;99.90;;;;;;5072236;28;20044;-70
2023/01/27 03:25:08;;;;;;;4.05;2.75;;;4.60;99.90;;;;;;5071116;28;20039;-69
2023/01/27 03:27:34;;;;;;;4.53;2.80;;;4.60;99.90;;;;;;5072319;28;20032;-69
2023/01/27 03:30:00;;;;;;;4.13;2.88;;;4.60;99.90;;;;;;5071793;28;20040;-69
2023/01/27 03:32:28;;;;;;;6.22;3.58;;;4.60;99.90;;;;;;5071892;28;20043;-69
2023/01/27 03:34:56;;;;;;;4.28;2.50;;;4.60;99.90;;;;;;5071016;28;20029;-69
2023/01/27 03:48:35;;;;;;;2.92;2.47;;;4.60;99.90;;;;;;5071812;28;20041;-70
2023/01/27 03:51:03;;;;;;;5.28;2.72;;;4.70;99.90;;;;;;5071762;28;20123;-69
2023/01/27 03:53:29;;;;;;;3.10;2.80;;;4.70;99.90;;;;;;5070479;28;20408;-69
2023/01/27 03:55:54;;;;;;;6.40;2.75;;;4.70;99.90;;;;;;5069544;28;20052;-69
2023/01/27 03:58:25;;;;;;;3.75;2.65;;;4.70;99.90;;;;;;5053563;28;20052;-69
2023/01/27 04:00:56;;;;;;;3.00;2.70;;;4.70;99.90;;;;;;5071577;28;20028;-69
2023/01/27 04:08:55;;;;;;;3.53;2.72;;;4.60;99.90;;;;;;5069935;28;20119;-69
2023/01/27 04:14:07;;;;;;;6.20;2.33;;;4.60;99.90;;;;;;5070494;28;20131;-69
2023/01/27 04:16:35;;;;;;;4.25;2.92;;;4.60;99.90;;;;;;5069836;28;20044;-69
2023/01/27 04:19:02;;;;;;;2.92;2.70;;;4.60;99.90;;;;;;5052984;28;20186;-69
2023/01/27 04:21:28;;;;;;;3.50;2.90;;;4.60;99.90;;;;;;5071117;28;20041;-69
2023/01/27 04:23:54;;;;;;;3.00;2.58;;;4.60;99.90;;;;;;5069115;28;20044;-69
2023/01/27 04:26:20;;;;;;;3.30;2.90;;;4.60;99.90;;;;;;5071230;28;20040;-69
2023/01/27 04:28:47;;;;;;;4.75;2.50;;;4.60;99.90;;;;;;5052486;28;20040;-69
2023/01/27 04:31:14;;;;;;;3.83;2.78;;;4.60;99.90;;;;;;5070959;28;20071;-69
2023/01/27 04:33:40;;;;;;;2.88;2.60;;;4.60;99.90;;;;;;5070805;28;20332;-69
2023/01/27 04:36:06;;;;;;;2.83;2.63;;;4.60;99.90;;;;;;5069358;28;20054;-69
2023/01/27 04:38:31;;;;;;;3.65;2.70;;;4.60;99.90;;;;;;5069366;28;20040;-69
2023/01/27 04:40:57;;;;;;;3.58;2.83;;;4.60;99.90;;;;;;5069853;28;20378;-69
2023/01/27 04:43:23;;;;;;;4.57;2.90;;;4.50;99.90;;;;;;5052843;28;20067;-69
2023/01/27 04:45:48;;;;;;;6.60;3.25;;;4.50;99.90;;;;;;5068703;28;20094;-69
2023/01/27 04:48:14;;;;;;;2.80;2.60;;;4.50;99.90;;;;;;5069561;28;20044;-70
2023/01/27 04:50:39;;;;;;;5.95;2.95;;;4.50;99.90;;;;;;5070754;28;20047;-69
2023/01/27 04:53:05;;;;;;;3.33;2.88;;;4.50;99.90;;;;;;5069123;28;20040;-69
2023/01/27 04:55:31;;;;;;;3.65;2.88;;;4.50;99.90;;;;;;5068969;28;20048;-69
2023/01/27 04:57:56;;;;;;;3.13;2.70;;;4.50;99.90;;;;;;5069264;28;20041;-69
2023/01/27 05:00:22;;;;;;;5.13;2.65;;;4.50;99.90;;;;;;5070910;28;20036;-69
2023/01/27 05:02:47;;;;;;;5.38;3.08;;;4.50;99.90;;;;;;5069684;28;20045;-69
2023/01/27 05:05:13;;;;;;;4.20;2.28;;;4.50;99.90;;;;;;5069904;28;20036;-69
2023/01/27 05:07:39;;;;;;;2.40;2.20;;;4.50;99.90;;;;;;5069315;28;20043;-70
2023/01/27 05:10:05;;;;;;;2.38;2.17;;;4.40;99.90;;;;;;5069597;28;20554;-69
2023/01/27 05:12:32;;;;;;;2.55;2.35;;;4.40;99.90;;;;;;5070532;28;20039;-69
2023/01/27 05:14:57;;;;;;;2.55;2.35;;;4.40;99.90;;;;;;5070075;28;20032;-69
2023/01/27 05:17:23;;;;;;;4.15;2.45;;;4.40;99.90;;;;;;5070397;28;20508;-69
2023/01/27 05:19:49;;;;;;;2.78;2.45;;;4.40;99.90;;;;;;5070626;28;20132;-69
2023/01/27 05:22:14;;;;;;;2.47;2.10;;;4.40;99.90;;;;;;5069055;28;20078;-69
2023/01/27 05:24:40;;;;;;;4.75;2.00;;;4.40;99.90;;;;;;5069730;28;20048;-69
2023/01/27 05:27:06;;;;;;;2.40;2.15;;;4.40;99.90;;;;;;5070324;28;20044;-69
2023/01/27 05:29:31;;;;;;;3.60;2.47;;;4.40;99.90;;;;;;5069352;28;20040;-69
2023/01/27 05:31:57;;;;;;;4.88;1.75;;;4.40;99.90;;;;;;5070455;28;20048;-69
2023/01/27 05:34:23;;;;;;;2.33;2.13;;;4.40;99.90;;;;;;5068430;28;20037;-69
2023/01/27 05:36:50;;;;;;;4.45;1.85;;;4.40;99.90;;;;;;5070660;28;20037;-69
2023/01/27 05:39:16;;;;;;;2.15;1.95;;;4.40;99.90;;;;;;5068870;28;20093;-69
2023/01/27 05:41:41;;;;;;;3.28;2.55;;;4.40;99.90;;;;;;5069296;28;20044;-69
2023/01/27 05:44:10;;;;;;;2.00;1.90;;;4.40;99.90;;;;;;5069664;28;20079;-69
2023/01/27 05:46:38;;;;;;;3.00;2.33;;;4.30;99.90;;;;;;5068996;28;20049;-69
2023/01/27 05:49:04;;;;;;;3.60;2.22;;;4.30;99.90;;;;;;5068729;28;20040;-69
2023/01/27 05:51:38;;;;;;;4.10;2.10;;;4.40;99.90;;;;;;5070449;28;20101;-69
2023/01/27 05:54:05;;;;;;;3.08;2.30;;;4.30;99.90;;;;;;5069397;28;20105;-69
2023/01/27 05:56:31;;;;;;;6.07;2.65;;;4.40;99.90;;;;;;5052094;28;20037;-69
2023/01/27 05:58:57;;;;;;;2.13;1.95;;;4.30;99.90;;;;;;5070309;28;20033;-69
2023/01/27 06:01:28;;;;;;;3.33;2.28;;;4.30;99.90;;;;;;5070008;28;20044;-69
2023/01/27 06:03:54;;;;;;;5.25;3.42;;;4.30;99.90;;;;;;5069218;28;20397;-69
2023/01/27 06:06:22;;;;;;;6.13;3.15;;;4.40;99.90;;;;;;5072408;28;20036;-69
2023/01/27 06:08:49;;;;;;;3.47;2.95;;;4.30;99.90;;;;;;5072233;28;20493;-69
2023/01/27 06:11:16;;;;;;;4.65;3.00;;;4.30;99.90;;;;;;5073513;28;20126;-69
2023/01/27 06:13:42;;;;;;;2.88;2.55;;;4.30;99.90;;;;;;5071610;28;20081;-69
2023/01/27 06:16:11;;;;;;;4.78;2.95;;;4.30;99.90;;;;;;5071717;28;20044;-69
2023/01/27 06:18:38;;;;;;;2.95;2.75;;;4.30;99.90;;;;;;5071997;28;20055;-69
2023/01/27 06:21:05;;;;;;;4.97;2.78;;;4.20;99.90;;;;;;5055597;28;20047;-69
2023/01/27 06:23:31;;;;;;;4.65;2.85;;;4.20;99.90;;;;;;5073556;28;20189;-70
2023/01/27 06:26:05;;;;;;;3.53;2.90;;;4.20;99.90;;;;;;5071509;28;20131;-70
2023/01/27 06:28:31;;;;;;;5.72;2.88;;;4.20;99.90;;;;;;5073007;28;20044;-69
2023/01/27 06:31:08;;;;;;;2.95;2.75;;;4.20;99.90;;;;;;5073109;28;20412;-69
2023/01/27 06:33:35;;;;;;;4.47;2.72;;;4.20;99.90;;;;;;5073217;28;20163;-69
2023/01/27 06:36:06;;;;;;;3.83;2.88;;;4.20;99.90;;;;;;5071229;28;20469;-69
2023/01/27 06:38:33;;;;;;;4.97;4.30;;;4.20;99.90;;;;;;5071564;28;20205;-68
2023/01/27 06:40:59;;;;;;;5.25;3.67;;;4.20;99.90;;;;;;5073243;28;20267;-71
2023/01/27 06:43:25;;;;;;;5.60;3.10;;;4.20;99.90;;;;;;5055279;28;20451;-69
2023/01/27 06:45:51;;;;;;;3.78;3.20;;;4.30;99.90;;;;;;5054452;28;20036;-69
2023/01/27 06:48:17;;;;;;;4.05;2.60;;;4.30;99.90;;;;;;5055019;28;20052;-69
2023/01/27 06:50:42;;;;;;;3.08;2.72;;;4.20;99.90;;;;;;5073120;28;20675;-69
2023/01/27 06:53:08;;;;;;;4.43;2.72;;;4.20;99.90;;;;;;5071701;28;20039;-69
2023/01/27 06:55:40;;;;;;;6.35;2.80;;;4.20;99.90;;;;;;5072040;28;20032;-70
2023/01/27 06:58:13;;;;;;;8.70;3.15;;;4.20;99.90;;;;;;5072543;28;20048;-69
2023/01/27 07:00:39;;;;;;;9.70;3.17;;;4.20;99.90;;;;;;5072441;28;20083;-69
2023/01/27 07:03:05;;;;;;;7.32;2.97;;;4.20;99.90;;;;;;5072631;28;20064;-70
2023/01/27 07:05:32;;;;;;;4.57;2.65;;;4.20;99.90;;;;;;5053611;28;20051;-70
2023/01/27 07:07:58;;;;;;;8.93;2.70;;;4.20;99.90;;;;;;5072236;28;20119;-70
2023/01/27 07:10:24;;;;;;;4.97;2.92;;;4.20;99.90;;;;;;5072526;28;20115;-69
2023/01/27 07:12:50;;;;;;;4.85;3.55;;;4.20;99.90;;;;;;5072547;28;20588;-69
2023/01/27 07:15:16;;;;;;;3.53;2.80;;;4.20;99.90;;;;;;5071174;28;20083;-70
2023/01/27 07:17:41;;;;;;;5.32;3.10;;;4.20;99.90;;;;;;5070941;28;20071;-69
2023/01/27 07:20:10;;;;;;;4.10;3.05;;;4.20;99.90;;;;;;5065772;28;20123;-69
2023/01/27 07:22:36;;;;;;;3.60;3.05;;;4.10;99.90;;;;;;5060981;28;20075;-68
2023/01/27 07:25:02;;;;;;;6.38;3.00;;;4.20;99.90;;;;;;5062460;28;20079;-69
2023/01/27 07:27:28;;;;;;;4.20;2.60;;;4.10;99.90;;;;;;5062867;28;20040;-69
2023/01/27 07:29:54;;;;;;;5.78;3.47;;;4.10;99.90;;;;;;5068739;28;20043;-69
2023/01/27 07:32:19;;;;;;;5.80;3.15;;;4.10;99.90;;;;;;5071485;28;20078;-68
2023/01/27 07:34:45;;;;;;;7.88;3.10;;;4.10;99.90;;;;;;5068991;28;20040;-69
2023/01/27 07:37:11;;;;;;;4.75;2.83;;;4.10;99.90;;;;;;5068058;28;20124;-69
2023/01/27 07:39:37;;;;;;;3.50;3.03;;;4.10;99.90;;;;;;5071338;28;20641;-69
2023/01/27 07:42:04;;;;;;;3.45;3.15;;;4.10;99.90;;;;;;5065932;28;20044;-69
2023/01/27 07:44:30;;;;;;;3.63;3.08;;;4.20;99.90;;;;;;5070655;28;20098;-68
2023/01/27 07:46:57;;;;;;;3.78;3.08;;;4.10;99.90;;;;;;5069760;28;20451;-69
2023/01/27 07:49:23;;;;;;;6.47;3.25;;;4.10;99.90;;;;;;5071145;28;20037;-69
2023/01/27 07:51:49;;;;;;;9.27;3.63;;;4.10;99.90;;;;;;5069692;28;20044;-69
2023/01/27 07:54:14;;;;;;;7.95;3.67;;;4.10;99.90;;;;;;5070036;28;20044;-69
2023/01/27 07:56:40;;;;;;;9.30;3.80;;;4.10;99.90;;;;;;5071025;28;20036;-68
2023/01/27 07:59:06;;;;;;;11.13;3.55;;;4.10;99.90;;;;;;5071059;28;20036;-68
2023/01/27 08:01:31;;;;;;;6.63;3.75;;;4.10;99.90;;;;;;5070640;28;20037;-69
2023/01/27 08:03:57;;;;;;;5.20;3.50;;;4.10;99.90;;;;;;5070293;28;20116;-68
2023/01/27 08:06:23;;;;;;;6.22;3.67;;;4.10;99.90;;;;;;5070410;28;20048;-69
2023/01/27 08:08:48;;;;;;;4.20;3.80;;;4.10;99.90;;;;;;5070871;28;20420;-69
2023/01/27 08:11:15;;;;;;;4.53;3.67;;;4.10;99.90;;;;;;5070683;28;20408;-68
2023/01/27 08:13:41;;;;;;;3.78;3.47;;;4.10;99.90;;;;;;5070160;28;20111;-68
2023/01/27 08:16:10;;;;;;;5.47;2.95;;;4.10;99.90;;;;;;5069143;28;20047;-70
2023/01/27 08:18:36;;;;;;;5.68;3.55;;;4.10;99.90;;;;;;5069206;28;20055;-70
2023/01/27 08:21:04;;;;;;;6.70;3.83;;;4.10;99.90;;;;;;5069084;28;20040;-70
2023/01/27 08:23:30;;;;;;;7.72;3.47;;;4.20;99.90;;;;;;5069421;28;20047;-71
2023/01/27 08:25:58;;;;;;;5.57;3.90;;;4.10;99.90;;;;;;5068013;28;20033;-70
2023/01/27 08:28:25;;;;;;;10.00;4.07;;;4.20;99.90;;;;;;5070322;28;20063;-71
2023/01/27 08:30:52;;;;;;;5.20;4.03;;;4.20;99.90;;;;;;5070444;28;20197;-71
2023/01/27 08:33:22;;;;;;;4.97;4.13;;;4.20;99.90;;;;;;5070270;28;20044;-74
2023/01/27 08:35:49;;;;;;;6.97;3.80;;;4.20;99.90;;;;;;5068676;28;20374;-74
2023/01/27 08:38:17;;;;;;;4.68;3.97;;;4.20;99.90;;;;;;5068727;28;20049;-69
2023/01/27 08:40:44;;;;;;;10.27;4.57;;;4.20;99.90;;;;;;5051879;28;20106;-70
2023/01/27 08:43:10;;;;;;;7.28;4.93;;;4.20;99.90;;;;;;5050457;28;20091;-70
2023/01/27 08:45:36;;;;;;;7.03;4.50;;;4.20;99.90;;;;;;5049336;28;20041;-70
2023/01/27 08:48:04;;;;;;;5.13;3.72;;;4.30;99.90;;;;;;5048845;28;20087;-70
2023/01/27 08:50:31;;;;;;;6.75;4.50;;;4.20;99.90;;;;;;5049007;28;20401;-70
2023/01/27 08:52:58;;;;;;;4.45;3.72;;;4.20;99.90;;;;;;5050093;28;20044;-70
2023/01/27 08:55:28;;;;;;;5.85;4.32;;;4.30;99.90;;;;;;5049856;28;20041;-70
2023/01/27 08:57:54;;;;;;;5.47;4.22;;;4.20;99.90;;;;;;5047684;28;20033;-70
2023/01/27 09:00:20;;;;;;;8.00;4.65;;;4.30;99.90;;;;;;5049784;28;20102;-70
2023/01/27 09:02:46;;;;;;;8.65;4.03;;;4.20;99.90;;;;;;5048428;28;20085;-70
2023/01/27 09:05:12;;;;;;;9.40;4.53;;;4.30;99.90;;;;;;5049958;28;20040;-70
2023/01/27 09:07:37;;;;;;;7.53;4.50;;;4.20;99.90;;;;;;5057058;28;20136;-70
2023/01/27 09:10:04;;;;;;;7.93;4.65;;;4.30;99.90;;;;;;5056817;28;20123;-70
2023/01/27 09:12:29;;;;;;;11.43;4.07;;;4.30;99.90;;;;;;5049961;28;20393;-69
2023/01/27 09:14:57;;;;;;;11.02;5.78;;;4.30;99.90;;;;;;5047769;28;20037;-69
2023/01/27 09:17:23;;;;;;;7.32;4.40;;;4.30;99.90;;;;;;5047666;28;20107;-70
2023/01/27 09:19:49;;;;;;;6.25;4.10;;;4.40;99.90;;;;;;5031773;28;20044;-70
2023/01/27 09:22:14;;;;;;;7.95;4.95;;;4.30;99.90;;;;;;5049323;28;20447;-70
2023/01/27 09:24:40;;;;;;;7.75;5.18;;;4.30;99.90;;;;;;5047859;28;20049;-70
2023/01/27 09:27:06;;;;;;;10.30;5.45;;;4.40;99.90;;;;;;5048211;28;20041;-70
2023/01/27 09:29:31;;;;;;;8.15;4.97;;;4.40;99.90;;;;;;5049244;28;20055;-70
2023/01/27 09:31:57;;;;;;;10.38;4.68;;;4.40;99.90;;;;;;5048196;28;20516;-70
2023/01/27 09:34:22;;;;;;;5.30;4.35;;;4.40;99.90;;;;;;5049133;28;20048;-70
2023/01/27 09:36:53;;;;;;;8.95;5.15;;;4.40;99.90;;;;;;5049144;28;20037;-70
2023/01/27 09:39:20;;;;;;;6.30;4.80;;;4.40;99.90;;;;;;5051544;28;20065;-70
2023/01/27 09:42:05;;;;;;;7.70;4.18;;;4.40;99.90;;;;;;5053207;28;20040;-70
2023/01/27 09:44:51;;;;;;;4.82;4.10;;;4.40;99.90;;;;;;5052837;28;20090;-70
2023/01/27 09:47:53;;;;;;;5.25;3.90;;;4.40;99.90;;;;;;5001588;28;20052;-70
2023/01/27 09:50:37;;;;;;;5.70;4.18;;;4.40;99.90;;;;;;5055659;28;20083;-68
2023/01/27 09:53:13;;;;;;;8.80;4.60;;;4.40;99.90;;;;;;5060979;28;20040;-69
2023/01/27 09:56:04;;;;;;;5.90;4.43;;;4.40;99.90;;;;;;5061039;28;20452;-68
2023/01/27 09:58:32;;;;;;;5.32;4.05;;;4.40;99.90;;;;;;5063698;28;20182;-68
2023/01/27 10:01:17;;;;;;;4.65;3.70;;;4.40;99.90;;;;;;5069240;28;20036;-68
2023/01/27 10:04:11;;;;;;;5.40;3.90;;;4.40;99.90;;;;;;5072423;28;20055;-69
2023/01/27 10:06:40;;;;;;;5.78;4.38;;;4.40;99.90;;;;;;5072445;28;20036;-69
2023/01/27 10:09:34;;;;;;;4.90;4.07;;;4.50;99.90;;;;;;5071238;28;20045;-69
2023/01/27 10:12:29;;;;;;;4.20;3.80;;;4.40;99.90;;;;;;5054936;28;20450;-73
2023/01/27 10:15:04;;;;;;;4.43;3.67;;;4.50;99.90;;;;;;5072082;28;20511;-70
2023/01/27 10:17:46;;;;;;;5.57;3.78;;;4.40;99.90;;;;;;5070927;28;20134;-70
2023/01/27 10:20:20;;;;;;;5.25;3.53;;;4.50;99.90;;;;;;5071276;28;20044;-70
2023/01/27 10:23:08;;;;;;;4.70;3.92;;;4.40;99.90;;;;;;5054399;28;20493;-70
2023/01/27 10:26:07;;;;;;;6.05;3.80;;;4.50;99.90;;;;;;5071364;28;20519;-70
2023/01/27 10:28:33;;;;;;;5.07;3.70;;;4.50;99.90;;;;;;5072462;28;20050;-70
2023/01/27 10:31:11;;;;;;;5.03;3.75;;;4.50;99.90;;;;;;5072695;28;20044;-73
2023/01/27 10:33:53;;;;;;;5.70;4.10;;;4.50;99.90;;;;;;5071568;28;20044;-69
2023/01/27 10:36:43;;;;;;;6.30;3.80;;;4.50;99.90;;;;;;5072701;28;20044;-69
2023/01/27 10:39:08;;;;;;;4.70;3.80;;;4.50;99.90;;;;;;5071603;28;20091;-70
2023/01/27 10:41:52;;;;;;;5.22;3.63;;;4.50;99.90;;;;;;5072802;28;20036;-69
2023/01/27 10:44:39;;;;;;;4.00;3.05;;;4.40;99.90;;;;;;5070543;28;20062;-69
2023/01/27 10:47:23;;;;;;;4.90;4.00;;;4.40;99.90;;;;;;5072855;28;20040;-68
2023/01/27 10:49:55;;;;;;;4.90;3.72;;;4.50;99.90;;;;;;5072173;28;20041;-68
2023/01/27 10:52:28;;;;;;;6.45;3.60;;;4.50;99.90;;;;;;5072630;28;20047;-68
2023/01/27 10:54:59;;;;;;;3.85;3.13;;;4.50;99.90;;;;;;5071786;28;20037;-68
2023/01/27 10:57:33;;;;;;;3.67;3.13;;;4.50;99.90;;;;;;5072439;28;20145;-68
2023/01/27 11:00:26;;;;;;;6.10;3.10;;;4.50;99.90;;;;;;5054524;28;20048;-68
2023/01/27 11:03:29;;;;;;;4.00;3.40;;;4.50;99.90;;;;;;5071127;28;20077;-68
2023/01/27 11:05:56;;;;;;;;;;;4.50;99.90;;;;;;5072394;28;20040;-68
2023/01/27 11:08:27;;;;;;;6.03;3.35;;;4.50;99.90;;;;;;5072483;28;19920;-68
2023/01/27 11:13:40;;;;;;;4.95;3.28;;;4.50;99.90;;;;;;5069588;28;20405;-69
2023/01/27 11:16:17;;;;;;;4.70;3.42;;;4.50;99.90;;;;;;5071834;28;20451;-68
2023/01/27 11:18:46;;;;;;;4.72;3.20;;;4.60;99.90;;;;;;5071908;28;20059;-69
2023/01/27 11:21:18;;;;;;;5.57;3.30;;;4.60;99.90;;;;;;5072186;28;20044;-68
2023/01/27 11:23:54;;;;;;;5.82;3.72;;;4.60;99.90;;;;;;5070386;28;20120;-69
2023/01/27 11:26:25;;;;;;;4.50;3.80;;;4.60;99.90;;;;;;5071941;28;20520;-69
2023/01/27 11:29:16;;;;;;;4.10;3.40;;;4.70;99.90;;;;;;5070993;28;20459;-69
2023/01/27 11:32:14;;;;;;;4.55;3.00;;;4.60;99.90;;;;;;5070450;28;20036;-69
2023/01/27 11:34:51;;;;;;;3.92;3.28;;;4.60;99.90;;;;;;5070449;28;20048;-68
2023/01/27 11:37:31;;;;;;;7.85;3.03;;;4.60;99.90;;;;;;5072004;28;20040;-68
2023/01/27 11:39:57;;;;;;;5.15;3.63;;;4.70;99.90;;;;;;5071906;28;20052;-69
2023/01/27 11:42:30;;;;;;;5.63;3.17;;;4.70;99.90;;;;;;5071794;28;20048;-69
2023/01/27 11:44:57;;;;;;;3.80;3.50;;;4.70;99.90;;;;;;5071022;28;20078;-68
2023/01/27 11:47:30;;;;;;;4.03;3.53;;;4.80;99.90;;;;;;5071721;28;20036;-69
2023/01/27 11:49:56;;;;;;;;;;;4.70;99.90;;;;;;5072383;28;20097;-69
2023/01/27 11:52:26;;;;;;;3.95;3.47;;;4.70;99.90;;;;;;5071796;28;20351;-69
2023/01/27 11:55:07;;;;;;;4.28;3.33;;;4.70;99.90;;;;;;5069802;28;20435;-69
2023/01/27 11:57:35;;;;;;;3.40;3.08;;;4.70;99.90;;;;;;5071758;28;20392;-67
2023/01/27 12:00:24;;;;;;;4.70;2.92;;;4.80;99.90;;;;;;5069972;28;20048;-73
2023/01/27 12:03:28;;;;;;;5.60;3.05;;;4.90;99.90;;;;;;5068781;28;20505;-73
2023/01/27 12:05:55;;;;;;;;;;;4.80;99.90;;;;;;5045984;28;20049;-73
2023/01/27 12:08:37;;;;;;;4.32;3.05;;;4.70;99.90;;;;;;5069773;28;19982;-73
2023/01/27 12:11:23;;;;;;;3.78;3.05;;;4.80;99.90;;;;;;5053308;28;20048;-73
2023/01/27 12:13:55;;;;;;;3.30;2.72;;;4.80;99.90;;;;;;5068987;28;20509;-72
2023/01/27 12:16:39;;;;;;;4.33;2.40;;;4.80;99.90;;;;;;5069859;28;20492;-73
2023/01/27 12:19:18;;;;;;;3.13;2.85;;;4.80;99.90;;;;;;5069597;28;20045;-73
2023/01/27 12:21:48;;;;;;;3.70;2.58;;;4.80;99.90;;;;;;5069788;28;20040;-72
2023/01/27 12:24:32;;;;;;;3.65;2.88;;;4.80;99.90;;;;;;5068831;28;20037;-73
2023/01/27 12:27:00;;;;;;;3.33;3.03;;;4.80;99.90;;;;;;5069711;28;20048;-72
2023/01/27 12:29:49;;;;;;;2.70;2.47;;;4.80;99.90;;;;;;5069665;28;20044;-68
2023/01/27 12:32:32;;;;;;;2.85;2.65;;;4.90;99.90;;;;;;5070990;28;20051;-71
2023/01/27 12:34:57;;;;;;;2.88;2.40;;;4.90;99.90;;;;;;5068861;28;20084;-76
2023/01/27 12:37:29;;;;;;;2.50;2.30;;;4.90;99.90;;;;;;5069541;28;20079;-68
2023/01/27 12:40:06;;;;;;;2.20;2.00;;;4.90;99.90;;;;;;5070773;28;20051;-68
2023/01/27 12:42:41;;;;;;;2.30;2.10;;;4.90;99.90;;;;;;5070590;28;20421;-68
2023/01/27 12:45:33;;;;;;;2.70;2.50;;;4.80;99.90;;;;;;5070034;28;20040;-68
2023/01/27 12:48:01;;;;;;;2.30;2.10;;;4.80;99.90;;;;;;5070852;28;20501;-68
2023/01/27 12:50:33;;;;;;;2.83;2.47;;;4.80;99.90;;;;;;5071152;28;20043;-68
2023/01/27 12:53:14;;;;;;;3.88;2.70;;;4.80;99.90;;;;;;5070871;28;20037;-68
2023/01/27 12:56:02;;;;;;;3.45;2.80;;;4.80;99.90;;;;;;5068762;28;20032;-69
2023/01/27 12:58:37;;;;;;;4.60;4.13;;;4.80;99.90;;;;;;5070767;28;20044;-71
2023/01/27 13:01:20;;;;;;;4.15;3.13;;;4.80;99.90;;;;;;5069508;28;20041;-72
2023/01/27 13:03:53;;;;;;;3.13;2.80;;;4.80;99.90;;;;;;5068719;28;20048;-72
2023/01/27 13:06:19;;;;;;;;;;;4.80;99.90;;;;;;5069913;28;20047;-76
2023/01/27 13:08:48;;;;;;;2.72;2.53;;;4.80;99.90;;;;;;5052973;28;19920;-72
2023/01/27 13:11:16;;;;;;;3.45;2.75;;;4.80;99.90;;;;;;5070822;28;20036;-71
2023/01/27 13:13:52;;;;;;;3.15;2.28;;;4.70;99.90;;;;;;5072726;28;20045;-71
2023/01/27 13:16:27;;;;;;;2.65;2.15;;;4.70;99.90;;;;;;5073619;28;20404;-71
2023/01/27 13:18:55;;;;;;;2.70;2.08;;;4.80;99.90;;;;;;5073215;28;20037;-72
2023/01/27 13:21:25;;;;;;;2.70;2.50;;;4.80;99.90;;;;;;5073236;28;20032;-71
2023/01/27 13:23:52;;;;;;;2.60;2.40;;;4.80;99.90;;;;;;5072391;28;20047;-72
2023/01/27 13:26:25;;;;;;;2.70;2.50;;;4.80;99.90;;;;;;5073373;28;20044;-71
2023/01/27 13:28:54;;;;;;;;;;;4.70;99.90;;;;;;5073913;28;20373;-72
2023/01/27 13:32:00;;;;;;;2.35;2.13;;;4.80;99.90;;;;;;5073971;28;20408;-71
2023/01/27 13:34:48;;;;;;;2.53;2.15;;;4.80;99.90;;;;;;5072555;28;20036;-71
2023/01/27 13:37:30;;;;;;;2.35;2.15;;;4.80;99.90;;;;;;5073060;28;20058;-71
2023/01/27 13:40:25;;;;;;;2.20;2.08;;;4.80;99.90;;;;;;5072826;28;20036;-71
2023/01/27 13:42:58;;;;;;;2.47;2.28;;;4.70;99.90;;;;;;5072882;28;20044;-71
2023/01/27 13:45:37;;;;;;;2.17;1.98;;;4.80;99.90;;;;;;5072284;28;20052;-71
2023/01/27 13:48:19;;;;;;;2.53;2.03;;;4.80;99.90;;;;;;5069654;28;20232;-71
2023/01/27 13:50:49;;;;;;;1.98;1.88;;;4.80;99.90;;;;;;5052868;28;20106;-71